Time;durP1;ratioP1;P1;durP2;ratioP2;P2;SDS_P1;SDS_P2;PMS_P1;PMS_P2;Temp;Humidity;BMP_temperature;BMP_pressure;BME280_temperature;BME280_humidity;BME280_pressure;Samples;Min_cycle;Max_cycle;Signal;HPM_P1;HPM_P2
2024/02/16 05:30:21;;;;;;;0.10;0.10;;;13.00;87.80;;;;;;6152148;23;20027;-79
2024/02/16 05:32:48;;;;;;;0.10;0.10;;;13.10;87.70;;;;;;6154608;23;20005;-79
2024/02/16 05:35:14;;;;;;;0.10;0.10;;;13.00;87.60;;;;;;6133916;23;20005;-79
2024/02/16 05:37:44;;;;;;;0.10;0.10;;;12.90;87.70;;;;;;6133266;23;20012;-78
2024/02/16 05:40:30;;;;;;;0.10;0.10;;;12.80;87.30;;;;;;6159279;23;20841;-79
2024/02/16 05:42:58;;;;;;;0.10;0.10;;;12.80;87.40;;;;;;6159306;23;20152;-79
2024/02/16 05:45:24;;;;;;;0.10;0.10;;;12.80;87.20;;;;;;6133847;23;20465;-78
2024/02/16 05:47:50;;;;;;;0.10;0.10;;;12.80;87.40;;;;;;6133296;23;20006;-81
2024/02/16 05:50:17;;;;;;;0.10;0.10;;;12.70;87.30;;;;;;6132725;23;20599;-76
2024/02/16 05:52:43;;;;;;;0.10;0.10;;;12.80;87.00;;;;;;6133241;23;20005;-80
2024/02/16 05:55:10;;;;;;;0.10;0.10;;;12.70;86.80;;;;;;6133112;23;20005;-81
2024/02/16 05:57:37;;;;;;;0.10;0.10;;;12.80;86.70;;;;;;6159086;23;20049;-78
2024/02/16 06:00:07;;;;;;;0.10;0.10;;;12.70;86.30;;;;;;6132807;23;20557;-77
2024/02/16 06:02:33;;;;;;;0.10;0.10;;;12.70;86.30;;;;;;6158370;23;20554;-77
2024/02/16 06:05:02;;;;;;;0.10;0.10;;;12.70;86.30;;;;;;6159594;23;20032;-80
2024/02/16 06:07:29;;;;;;;0.10;0.10;;;12.70;86.20;;;;;;6159416;23;20012;-77
2024/02/16 06:09:58;;;;;;;0.10;0.10;;;12.70;86.20;;;;;;6133537;23;20005;-77
2024/02/16 06:12:24;;;;;;;0.10;0.10;;;12.80;86.00;;;;;;6132480;23;20037;-80
2024/02/16 06:14:50;;;;;;;0.10;0.10;;;12.80;86.00;;;;;;6159231;23;20315;-79
2024/02/16 06:17:16;;;;;;;0.10;0.10;;;12.80;85.70;;;;;;6133610;23;20036;-78
2024/02/16 06:19:42;;;;;;;0.10;0.10;;;12.80;85.70;;;;;;6133593;23;20084;-82
2024/02/16 06:22:08;;;;;;;0.10;0.10;;;12.80;85.50;;;;;;6158372;23;19997;-78
2024/02/16 06:24:34;;;;;;;0.08;0.08;;;12.80;85.50;;;;;;6159859;23;20639;-76
2024/02/16 06:27:00;;;;;;;0.13;0.13;;;12.70;85.60;;;;;;6133806;23;20020;-77
2024/02/16 06:29:25;;;;;;;0.10;0.10;;;12.70;85.60;;;;;;6158684;23;20005;-77
2024/02/16 06:31:51;;;;;;;0.10;0.10;;;12.60;85.10;;;;;;6159044;23;20446;-78
2024/02/16 06:34:18;;;;;;;0.10;0.10;;;12.50;85.60;;;;;;6159013;23;20025;-78
2024/02/16 06:36:44;;;;;;;0.10;0.10;;;12.60;85.60;;;;;;6158664;23;20004;-82
2024/02/16 06:39:16;;;;;;;0.10;0.10;;;12.60;85.50;;;;;;6159126;23;19997;-85
2024/02/16 06:41:43;;;;;;;0.10;0.10;;;12.60;85.40;;;;;;6149113;23;20001;-81
2024/02/16 06:44:09;;;;;;;0.10;0.10;;;12.60;85.20;;;;;;6154270;23;20012;-80
2024/02/16 06:46:35;;;;;;;0.10;0.10;;;12.50;85.10;;;;;;6157047;23;20084;-80
2024/02/16 06:49:00;;;;;;;0.10;0.10;;;12.60;85.30;;;;;;6157944;23;20032;-80
2024/02/16 06:51:28;;;;;;;0.10;0.10;;;12.60;85.20;;;;;;6154985;23;20010;-80
2024/02/16 06:53:54;;;;;;;0.10;0.10;;;12.50;84.70;;;;;;6156065;23;20063;-81
2024/02/16 06:56:20;;;;;;;0.10;0.10;;;12.40;84.70;;;;;;6157706;23;20029;-80
2024/02/16 06:58:46;;;;;;;0.10;0.10;;;12.30;84.80;;;;;;6158200;23;20056;-80
2024/02/16 07:01:16;;;;;;;0.10;0.10;;;12.30;84.70;;;;;;6131832;23;20001;-80
2024/02/16 07:03:43;;;;;;;0.10;0.10;;;12.20;84.50;;;;;;6157723;23;20016;-80
2024/02/16 07:06:10;;;;;;;0.08;0.08;;;12.20;84.70;;;;;;6155666;23;20012;-78
2024/02/16 07:08:39;;;;;;;0.10;0.10;;;12.20;84.90;;;;;;6156710;23;20004;-78
2024/02/16 07:11:05;;;;;;;0.10;0.10;;;12.20;84.80;;;;;;6132435;23;20012;-78
2024/02/16 07:13:34;;;;;;;0.10;0.10;;;12.20;84.60;;;;;;6158273;23;20353;-78
2024/02/16 07:16:00;;;;;;;0.10;0.10;;;12.20;84.70;;;;;;6158600;23;20453;-78
2024/02/16 07:18:26;;;;;;;0.10;0.10;;;12.30;84.50;;;;;;6132154;23;20036;-78
2024/02/16 07:20:51;;;;;;;0.10;0.10;;;12.20;84.30;;;;;;6132755;23;20013;-78
2024/02/16 07:23:17;;;;;;;0.10;0.10;;;12.20;84.50;;;;;;6131537;23;20015;-78
2024/02/16 07:25:43;;;;;;;0.10;0.10;;;12.20;84.30;;;;;;6132701;23;20012;-78
2024/02/16 07:28:09;;;;;;;0.10;0.10;;;12.20;84.30;;;;;;6131747;23;20068;-78
2024/02/16 07:30:38;;;;;;;0.10;0.10;;;12.20;84.30;;;;;;6158874;23;20021;-78
2024/02/16 07:33:04;;;;;;;0.10;0.10;;;12.20;84.40;;;;;;6129539;23;20012;-78
2024/02/16 07:35:30;;;;;;;0.10;0.10;;;12.20;84.30;;;;;;6158501;23;20009;-78
2024/02/16 07:37:55;;;;;;;0.10;0.10;;;12.20;84.30;;;;;;6131140;23;20433;-78
2024/02/16 07:40:22;;;;;;;0.10;0.10;;;12.20;83.80;;;;;;6157907;23;20072;-78
2024/02/16 07:42:47;;;;;;;0.10;0.10;;;12.10;84.00;;;;;;6132161;23;20001;-78
2024/02/16 07:45:13;;;;;;;0.10;0.10;;;12.10;83.70;;;;;;6132363;23;20001;-78
2024/02/16 07:47:41;;;;;;;0.10;0.10;;;12.10;83.90;;;;;;6158482;23;20002;-78
2024/02/16 07:50:07;;;;;;;0.10;0.10;;;12.10;83.60;;;;;;6157210;23;20027;-78
2024/02/16 07:52:33;;;;;;;0.10;0.10;;;12.10;83.80;;;;;;6157257;23;20029;-78
2024/02/16 07:54:58;;;;;;;0.10;0.10;;;12.00;83.60;;;;;;6132620;23;20010;-78
2024/02/16 07:57:24;;;;;;;0.10;0.10;;;12.00;83.70;;;;;;6156254;23;19997;-78
2024/02/16 07:59:50;;;;;;;0.10;0.10;;;12.00;83.60;;;;;;6158527;23;19997;-78
2024/02/16 08:02:17;;;;;;;0.10;0.10;;;12.00;83.40;;;;;;6132259;23;20010;-78
2024/02/16 08:04:46;;;;;;;0.10;0.10;;;12.00;83.60;;;;;;6131913;23;20013;-78
2024/02/16 08:07:12;;;;;;;0.13;0.13;;;12.00;83.70;;;;;;6158467;23;20010;-78
2024/02/16 08:09:38;;;;;;;0.10;0.10;;;12.10;83.50;;;;;;6157385;23;20040;-78
2024/02/16 08:12:06;;;;;;;0.10;0.10;;;12.10;83.40;;;;;;6158210;23;20006;-78
2024/02/16 08:14:35;;;;;;;0.10;0.10;;;12.20;83.20;;;;;;6158021;23;20005;-78
2024/02/16 08:17:01;;;;;;;0.10;0.10;;;12.20;83.30;;;;;;6158040;23;19998;-78
2024/02/16 08:19:38;;;;;;;0.20;0.20;;;12.30;83.00;;;;;;6133656;23;20056;-78
2024/02/16 08:22:05;;;;;;;0.20;0.20;;;12.40;82.70;;;;;;6134079;23;20005;-78
2024/02/16 08:24:36;;;;;;;0.70;0.70;;;12.80;82.20;;;;;;6160039;23;20067;-78
2024/02/16 08:27:04;;;;;;;0.43;0.43;;;13.70;80.30;;;;;;6159972;23;20006;-78
2024/02/16 08:29:30;;;;;;;0.40;0.40;;;14.70;78.20;;;;;;6132227;23;20013;-78
2024/02/16 08:31:55;;;;;;;0.50;0.50;;;15.50;76.10;;;;;;6160216;23;20048;-78
2024/02/16 08:34:21;;;;;;;0.20;0.20;;;16.30;73.40;;;;;;6132723;23;20006;-79
2024/02/16 08:36:50;;;;;;;0.60;0.60;;;16.50;72.10;;;;;;6158365;23;20544;-79
2024/02/16 08:39:17;;;;;;;0.85;0.85;;;16.70;71.20;;;;;;6159173;23;19994;-81
2024/02/16 08:41:48;;;;;;;1.10;1.10;;;16.90;70.00;;;;;;6159537;23;20319;-82
2024/02/16 08:44:13;;;;;;;0.40;0.40;;;17.30;68.70;;;;;;6160302;23;20029;-80
2024/02/16 08:46:39;;;;;;;0.40;0.40;;;17.50;67.90;;;;;;6158514;23;20080;-81
2024/02/16 08:49:06;;;;;;;0.30;0.30;;;17.30;68.00;;;;;;6160295;23;20029;-80
2024/02/16 08:51:35;;;;;;;0.40;0.40;;;16.80;68.20;;;;;;6134254;23;20512;-80
2024/02/16 08:54:01;;;;;;;0.40;0.40;;;16.20;69.50;;;;;;6159300;23;20009;-81
2024/02/16 08:56:28;;;;;;;0.20;0.20;;;15.90;70.50;;;;;;6159834;23;20100;-79
2024/02/16 08:58:54;;;;;;;0.20;0.20;;;15.60;70.70;;;;;;6159701;23;20444;-81
2024/02/16 09:01:36;;;;;;;0.40;0.40;;;15.40;71.80;;;;;;6159889;23;20021;-81
2024/02/16 09:04:03;;;;;;;0.20;0.20;;;15.20;72.10;;;;;;6133329;23;20013;-79
2024/02/16 09:06:29;;;;;;;0.30;0.30;;;15.00;73.10;;;;;;6158898;23;20008;-79
2024/02/16 09:08:55;;;;;;;0.40;0.40;;;14.90;73.40;;;;;;6159786;23;20011;-79
2024/02/16 09:11:21;;;;;;;0.30;0.30;;;15.00;73.70;;;;;;6159385;23;20639;-79
2024/02/16 09:13:47;;;;;;;0.30;0.30;;;15.10;73.50;;;;;;6158840;23;20080;-79
2024/02/16 09:16:12;;;;;;;0.20;0.20;;;15.10;73.40;;;;;;6159151;23;20323;-79
2024/02/16 09:18:38;;;;;;;0.30;0.30;;;15.20;73.70;;;;;;6159168;23;20002;-79
2024/02/16 09:21:04;;;;;;;0.90;0.90;;;15.30;73.30;;;;;;6159112;23;20005;-79
2024/02/16 09:23:31;;;;;;;0.70;0.70;;;15.70;72.30;;;;;;6158991;23;20036;-79
2024/02/16 09:25:56;;;;;;;0.40;0.40;;;16.20;71.70;;;;;;6159351;23;20458;-79
2024/02/16 09:28:22;;;;;;;0.90;0.90;;;16.20;71.20;;;;;;6158917;23;20009;-79
2024/02/16 09:30:48;;;;;;;0.50;0.50;;;16.30;70.60;;;;;;6159060;23;20041;-79
2024/02/16 09:33:16;;;;;;;0.60;0.60;;;16.30;69.70;;;;;;6132857;23;20009;-79
2024/02/16 09:35:42;;;;;;;1.02;1.02;;;16.20;69.80;;;;;;6158330;23;20002;-79
2024/02/16 09:38:10;;;;;;;2.10;2.00;;;16.60;69.30;;;;;;6159067;23;20053;-79
2024/02/16 09:40:36;;;;;;;2.30;2.20;;;17.10;68.00;;;;;;6158326;23;20052;-79
2024/02/16 09:43:02;;;;;;;2.60;2.40;;;17.70;66.90;;;;;;6158085;23;20005;-79
2024/02/16 09:45:29;;;;;;;3.30;3.10;;;18.30;64.80;;;;;;6132953;23;20190;-80
2024/02/16 09:47:55;;;;;;;3.30;3.10;;;18.90;63.60;;;;;;6158984;23;20443;-79
2024/02/16 09:50:21;;;;;;;3.40;3.20;;;19.30;62.20;;;;;;6158515;23;20005;-79
2024/02/16 09:52:49;;;;;;;3.80;3.60;;;19.80;60.50;;;;;;6158395;23;20016;-79
2024/02/16 09:55:16;;;;;;;4.40;4.10;;;20.00;60.50;;;;;;6158287;23;20053;-80
2024/02/16 09:57:43;;;;;;;3.65;3.45;;;20.40;58.90;;;;;;6158784;23;20029;-80
2024/02/16 10:00:09;;;;;;;4.57;4.28;;;20.60;57.90;;;;;;6158504;23;19997;-80
2024/02/16 10:02:45;;;;;;;5.03;4.72;;;20.80;57.90;;;;;;6158910;23;20087;-80
2024/02/16 10:05:19;;;;;;;4.30;4.00;;;20.90;57.40;;;;;;6133080;23;20013;-80
2024/02/16 10:07:45;;;;;;;5.30;5.00;;;20.60;58.00;;;;;;6133103;23;20009;-80
2024/02/16 10:10:25;;;;;;;5.57;5.28;;;20.30;57.00;;;;;;6158682;23;20019;-80
2024/02/16 10:13:05;;;;;;;1.00;1.00;;;20.10;58.30;;;;;;6158494;23;20064;-80
2024/02/16 10:15:34;;;;;;;0.10;0.10;;;19.80;58.20;;;;;;6158781;23;20025;-80
2024/02/16 10:18:07;;;;;;;0.10;0.10;;;19.40;58.70;;;;;;6158293;23;20006;-78
2024/02/16 10:20:35;;;;;;;0.10;0.10;;;18.90;60.90;;;;;;6157654;23;20024;-78
2024/02/16 10:23:11;;;;;;;0.10;0.10;;;18.30;60.90;;;;;;6158751;23;20005;-78
2024/02/16 10:25:38;;;;;;;0.10;0.10;;;17.60;60.70;;;;;;6158775;23;20016;-78
2024/02/16 10:28:06;;;;;;;0.10;0.10;;;17.30;64.30;;;;;;6158891;23;20004;-78
2024/02/16 10:30:37;;;;;;;0.10;0.10;;;16.90;64.10;;;;;;6158522;23;20341;-78
2024/02/16 10:33:07;;;;;;;0.10;0.10;;;16.60;64.20;;;;;;6158743;23;20004;-78
2024/02/16 10:35:34;;;;;;;0.10;0.10;;;16.40;65.90;;;;;;6158563;23;20002;-78
2024/02/16 10:38:06;;;;;;;0.10;0.10;;;16.20;65.90;;;;;;6132100;23;20012;-77
2024/02/16 10:40:38;;;;;;;0.10;0.10;;;16.00;66.00;;;;;;6158173;23;20001;-77
2024/02/16 10:43:05;;;;;;;0.10;0.10;;;16.00;66.90;;;;;;6132231;23;20060;-78
2024/02/16 10:45:36;;;;;;;0.10;0.10;;;15.90;65.60;;;;;;6158799;23;20031;-78
2024/02/16 10:48:05;;;;;;;0.10;0.10;;;16.00;67.30;;;;;;6158235;23;20001;-78
2024/02/16 10:50:36;;;;;;;0.10;0.10;;;16.10;67.00;;;;;;6158410;23;19997;-78
2024/02/16 10:53:34;;;;;;;0.10;0.10;;;16.00;63.00;;;;;;6158195;23;20028;-78
2024/02/16 10:56:01;;;;;;;0.20;0.20;;;16.20;63.90;;;;;;6094298;23;20009;-78
2024/02/16 10:58:29;;;;;;;0.10;0.10;;;16.30;62.90;;;;;;6158302;23;19998;-77
2024/02/16 11:00:56;;;;;;;0.10;0.10;;;16.00;59.70;;;;;;6158264;23;20060;-78
2024/02/16 11:03:26;;;;;;;0.10;0.10;;;16.00;60.70;;;;;;6132577;23;20013;-78
2024/02/16 11:05:52;;;;;;;0.10;0.10;;;16.10;61.00;;;;;;6158704;23;20016;-78
2024/02/16 11:08:26;;;;;;;0.10;0.10;;;16.10;59.20;;;;;;6158067;23;20393;-78
2024/02/16 11:10:59;;;;;;;0.10;0.10;;;16.20;60.30;;;;;;6158262;23;20028;-78
2024/02/16 11:13:28;;;;;;;0.10;0.10;;;16.20;60.40;;;;;;6158304;23;20077;-78
2024/02/16 11:16:02;;;;;;;0.10;0.10;;;16.10;59.00;;;;;;6132331;23;20044;-78
2024/02/16 11:18:32;;;;;;;0.10;0.10;;;16.20;60.80;;;;;;6157729;23;20004;-78
2024/02/16 11:21:04;;;;;;;0.10;0.10;;;16.20;60.20;;;;;;6158225;23;20072;-78
2024/02/16 11:23:31;;;;;;;0.10;0.10;;;16.10;59.80;;;;;;6157890;23;20060;-78
2024/02/16 11:26:03;;;;;;;0.10;0.10;;;16.10;61.10;;;;;;6157652;23;20069;-78
2024/02/16 11:28:34;;;;;;;0.05;0.05;;;16.00;61.80;;;;;;6132272;23;20074;-78
2024/02/16 11:31:00;;;;;;;0.10;0.10;;;15.80;62.30;;;;;;6158094;23;20053;-78
2024/02/16 11:33:29;;;;;;;0.10;0.10;;;15.80;63.40;;;;;;6158397;23;20012;-78
2024/02/16 11:35:59;;;;;;;0.10;0.10;;;15.80;64.20;;;;;;6158552;23;20006;-78
2024/02/16 11:38:25;;;;;;;0.10;0.10;;;15.90;64.50;;;;;;6158082;23;20002;-78
2024/02/16 11:41:05;;;;;;;0.20;0.20;;;16.00;64.90;;;;;;6158334;23;20071;-78
2024/02/16 11:43:32;;;;;;;0.10;0.10;;;16.00;65.00;;;;;;6158405;23;20426;-78
2024/02/16 11:45:58;;;;;;;0.10;0.10;;;16.10;65.60;;;;;;6132873;23;20032;-81
2024/02/16 11:48:27;;;;;;;0.10;0.10;;;16.10;65.20;;;;;;6158349;23;20005;-80
2024/02/16 11:51:01;;;;;;;0.10;0.10;;;16.10;65.20;;;;;;6158020;23;20443;-80
2024/02/16 11:53:27;;;;;;;0.10;0.10;;;16.00;65.40;;;;;;6159920;23;20020;-80
2024/02/16 11:55:53;;;;;;;0.10;0.10;;;16.10;65.90;;;;;;6160340;23;20001;-81
2024/02/16 11:58:19;;;;;;;0.10;0.10;;;16.20;66.20;;;;;;6159976;23;20418;-80
2024/02/16 12:00:48;;;;;;;0.10;0.10;;;16.20;65.80;;;;;;6160143;23;20005;-80
2024/02/16 12:03:23;;;;;;;0.10;0.10;;;16.20;65.50;;;;;;6134215;23;20010;-80
2024/02/16 12:05:53;;;;;;;0.10;0.10;;;16.20;65.40;;;;;;6159943;23;20009;-80
2024/02/16 12:08:20;;;;;;;0.10;0.10;;;16.10;65.80;;;;;;6160531;23;20002;-80
2024/02/16 12:10:50;;;;;;;0.10;0.10;;;16.00;65.30;;;;;;6134043;23;20128;-80
2024/02/16 12:13:18;;;;;;;0.10;0.10;;;16.00;65.80;;;;;;6159877;23;20005;-79
2024/02/16 12:15:45;;;;;;;0.10;0.10;;;15.90;65.90;;;;;;6159921;23;20012;-82
2024/02/16 12:18:18;;;;;;;0.10;0.10;;;16.00;66.20;;;;;;6160060;23;20002;-79
2024/02/16 12:20:47;;;;;;;0.10;0.10;;;16.10;66.60;;;;;;6160215;23;19998;-79
2024/02/16 12:23:13;;;;;;;0.10;0.10;;;16.20;66.00;;;;;;6137010;23;20056;-76
2024/02/16 12:25:39;;;;;;;0.10;0.10;;;16.30;65.30;;;;;;6166663;23;20055;-80
2024/02/16 12:28:05;;;;;;;0.10;0.10;;;16.10;63.10;;;;;;6160480;23;20001;-77
2024/02/16 12:30:31;;;;;;;0.10;0.10;;;16.10;63.30;;;;;;6159836;23;20013;-81
2024/02/16 12:32:57;;;;;;;0.10;0.10;;;15.90;62.70;;;;;;6159822;23;20002;-80
2024/02/16 12:35:22;;;;;;;0.10;0.10;;;16.10;63.60;;;;;;6160443;23;20445;-81
2024/02/16 12:37:48;;;;;;;0.10;0.10;;;16.00;63.20;;;;;;6133509;23;20002;-81
2024/02/16 12:40:13;;;;;;;0.10;0.10;;;16.10;62.40;;;;;;6160330;23;20032;-82
2024/02/16 12:42:39;;;;;;;0.10;0.10;;;16.10;62.20;;;;;;6158366;23;20002;-82
2024/02/16 12:45:05;;;;;;;0.10;0.10;;;15.70;59.40;;;;;;6159896;23;20037;-80
2024/02/16 12:47:31;;;;;;;0.10;0.10;;;15.70;60.60;;;;;;6159936;23;20819;-78
2024/02/16 12:49:59;;;;;;;0.10;0.10;;;15.60;60.50;;;;;;6160198;23;20346;-81
2024/02/16 12:52:25;;;;;;;0.10;0.10;;;15.50;61.40;;;;;;6159412;23;20025;-78
2024/02/16 12:54:52;;;;;;;0.00;0.00;;;15.40;60.60;;;;;;6159653;23;20002;-78
2024/02/16 12:57:18;;;;;;;0.10;0.10;;;15.30;61.50;;;;;;6159395;23;19997;-78
2024/02/16 12:59:44;;;;;;;0.08;0.08;;;15.20;61.60;;;;;;6159454;23;20024;-78
2024/02/16 13:02:10;;;;;;;0.10;0.10;;;15.00;62.40;;;;;;6159763;23;20002;-78
2024/02/16 13:04:35;;;;;;;0.08;0.08;;;14.90;62.30;;;;;;6133095;23;20020;-78
2024/02/16 13:07:01;;;;;;;0.10;0.10;;;15.10;63.60;;;;;;6159312;23;20408;-78
2024/02/16 13:09:28;;;;;;;0.00;0.00;;;15.10;63.00;;;;;;6133562;23;20017;-78
2024/02/16 13:11:54;;;;;;;0.10;0.10;;;15.20;62.70;;;;;;6158918;23;20063;-78
2024/02/16 13:14:21;;;;;;;0.10;0.10;;;15.20;62.40;;;;;;6159381;23;20029;-78
2024/02/16 13:16:47;;;;;;;0.00;0.00;;;15.20;62.90;;;;;;6159718;23;20072;-78
2024/02/16 13:19:13;;;;;;;0.10;0.10;;;15.20;62.70;;;;;;6159307;23;20005;-78
2024/02/16 13:21:39;;;;;;;0.10;0.10;;;15.20;62.20;;;;;;6159323;23;19997;-79
2024/02/16 13:24:05;;;;;;;0.00;0.00;;;15.30;62.20;;;;;;6159470;23;20012;-78
2024/02/16 13:26:31;;;;;;;0.10;0.10;;;15.20;62.60;;;;;;6159195;23;20009;-78
2024/02/16 13:28:57;;;;;;;0.08;0.08;;;15.20;62.50;;;;;;6133512;23;20077;-78
2024/02/16 13:31:23;;;;;;;0.10;0.10;;;15.20;62.30;;;;;;6142865;23;20021;-78
2024/02/16 13:33:51;;;;;;;0.00;0.00;;;15.10;61.70;;;;;;6158220;23;20013;-78
2024/02/16 13:36:18;;;;;;;0.10;0.10;;;15.10;62.10;;;;;;6159148;23;20080;-78
2024/02/16 13:38:44;;;;;;;0.00;0.00;;;15.10;62.30;;;;;;6158121;23;20001;-78
2024/02/16 13:41:09;;;;;;;0.00;0.00;;;15.00;62.70;;;;;;6158175;23;20005;-78
2024/02/16 13:43:35;;;;;;;0.08;0.08;;;14.90;62.90;;;;;;6157118;23;20084;-78
2024/02/16 13:46:01;;;;;;;0.00;0.00;;;14.80;63.00;;;;;;6158220;23;20012;-78
2024/02/16 13:48:26;;;;;;;0.10;0.10;;;14.80;63.60;;;;;;6157317;23;20401;-78
2024/02/16 13:50:54;;;;;;;0.10;0.10;;;14.80;64.10;;;;;;6158002;23;20615;-78
2024/02/16 13:53:22;;;;;;;0.10;0.10;;;14.80;64.20;;;;;;6158322;23;20063;-77
2024/02/16 13:55:48;;;;;;;0.00;0.00;;;14.60;64.80;;;;;;6158651;23;20334;-78
2024/02/16 13:58:14;;;;;;;0.10;0.10;;;14.40;64.60;;;;;;6158796;23;20001;-78
2024/02/16 14:00:40;;;;;;;0.10;0.10;;;14.20;65.90;;;;;;6156174;23;20761;-78
2024/02/16 14:03:10;;;;;;;0.10;0.10;;;14.00;66.70;;;;;;6155603;23;20056;-78
2024/02/16 14:05:39;;;;;;;0.05;0.05;;;13.90;66.80;;;;;;6156919;23;20009;-78
2024/02/16 14:08:09;;;;;;;0.10;0.10;;;14.10;67.30;;;;;;6157992;23;20531;-78
2024/02/16 14:10:34;;;;;;;0.08;0.08;;;14.20;66.70;;;;;;6158484;23;20006;-77
2024/02/16 14:13:00;;;;;;;0.10;0.10;;;14.30;67.10;;;;;;6155811;23;20016;-78
2024/02/16 14:15:26;;;;;;;0.10;0.10;;;14.50;66.50;;;;;;6158048;23;20454;-78
2024/02/16 14:17:52;;;;;;;0.10;0.10;;;14.60;66.20;;;;;;6158436;23;19997;-78
2024/02/16 14:20:17;;;;;;;0.10;0.10;;;14.70;66.20;;;;;;6155950;23;20002;-78
2024/02/16 14:22:43;;;;;;;0.10;0.10;;;14.80;65.40;;;;;;6156412;23;20005;-78
2024/02/16 14:25:11;;;;;;;0.10;0.10;;;14.90;65.50;;;;;;6158520;23;20001;-78
2024/02/16 14:27:37;;;;;;;0.10;0.10;;;14.90;64.80;;;;;;6157785;23;20505;-78
2024/02/16 14:30:04;;;;;;;0.10;0.10;;;15.00;64.30;;;;;;6157833;23;20012;-78
2024/02/16 14:32:29;;;;;;;0.10;0.10;;;15.10;63.10;;;;;;6180639;23;20114;-78
2024/02/16 14:34:55;;;;;;;0.10;0.10;;;15.10;63.60;;;;;;6158329;23;20013;-78
2024/02/16 14:37:21;;;;;;;0.10;0.10;;;15.10;63.60;;;;;;6156242;23;20002;-78
2024/02/16 14:39:47;;;;;;;0.10;0.10;;;15.20;63.20;;;;;;6157429;23;20346;-78
2024/02/16 14:42:14;;;;;;;0.10;0.10;;;15.20;62.40;;;;;;6156594;23;20002;-78
2024/02/16 14:44:39;;;;;;;0.20;0.20;;;15.30;62.40;;;;;;6181445;23;20010;-78
2024/02/16 14:47:05;;;;;;;0.10;0.10;;;15.20;60.90;;;;;;6157402;23;20036;-78
2024/02/16 14:49:31;;;;;;;0.10;0.10;;;15.10;60.80;;;;;;6156496;23;20470;-78
2024/02/16 14:51:57;;;;;;;0.10;0.10;;;14.90;60.30;;;;;;6158318;23;20005;-78
2024/02/16 14:54:25;;;;;;;0.10;0.10;;;15.00;61.00;;;;;;6157731;23;20429;-78
2024/02/16 14:56:52;;;;;;;0.10;0.10;;;15.00;60.40;;;;;;6156736;23;20464;-78
2024/02/16 14:59:18;;;;;;;0.10;0.10;;;14.90;60.30;;;;;;6158035;23;20057;-78
2024/02/16 15:01:44;;;;;;;0.10;0.10;;;14.90;59.50;;;;;;6157867;23;20361;-78
2024/02/16 15:04:09;;;;;;;0.10;0.10;;;15.10;60.10;;;;;;6157832;23;20009;-78
2024/02/16 15:06:36;;;;;;;0.10;0.10;;;15.20;60.60;;;;;;6157160;23;20405;-78
2024/02/16 15:09:05;;;;;;;0.10;0.10;;;15.40;60.60;;;;;;6157734;23;20089;-78
2024/02/16 15:11:31;;;;;;;0.10;0.10;;;15.40;60.40;;;;;;6157947;23;20028;-78
2024/02/16 15:13:56;;;;;;;0.10;0.10;;;15.40;58.60;;;;;;6158096;23;20440;-78
2024/02/16 15:16:22;;;;;;;0.10;0.10;;;15.40;59.20;;;;;;6157141;23;20033;-79
2024/02/16 15:18:48;;;;;;;0.10;0.10;;;15.50;59.70;;;;;;6158999;23;20082;-79
2024/02/16 15:21:13;;;;;;;0.10;0.10;;;15.40;59.20;;;;;;6158227;23;20472;-78
2024/02/16 15:23:39;;;;;;;0.10;0.10;;;15.40;58.70;;;;;;6158651;23;20009;-78
2024/02/16 15:26:05;;;;;;;0.10;0.10;;;15.30;59.50;;;;;;6158123;23;20001;-78
2024/02/16 15:28:34;;;;;;;0.10;0.10;;;15.30;58.60;;;;;;6159622;23;20520;-80
2024/02/16 15:30:59;;;;;;;0.10;0.10;;;15.50;58.70;;;;;;6160775;23;20350;-81
2024/02/16 15:33:25;;;;;;;0.10;0.10;;;15.60;59.30;;;;;;6161075;23;20005;-85
2024/02/16 15:35:51;;;;;;;0.10;0.10;;;15.60;58.50;;;;;;6161446;23;20002;-80
2024/02/16 15:38:17;;;;;;;0.10;0.10;;;15.70;58.70;;;;;;6161231;23;20005;-82
2024/02/16 15:40:42;;;;;;;0.10;0.10;;;15.60;57.90;;;;;;6159535;23;20012;-79
2024/02/16 15:43:10;;;;;;;0.10;0.10;;;15.50;57.10;;;;;;6159490;23;20425;-86
2024/02/16 15:45:40;;;;;;;0.10;0.10;;;15.30;56.90;;;;;;6133503;23;20013;-83
2024/02/16 15:48:08;;;;;;;0.10;0.10;;;15.30;58.30;;;;;;6134237;23;20001;-84
2024/02/16 15:50:33;;;;;;;0.10;0.10;;;15.20;58.30;;;;;;6134251;23;20033;-84
2024/02/16 15:52:59;;;;;;;0.10;0.10;;;15.10;58.60;;;;;;6130822;23;20018;-80
2024/02/16 15:55:25;;;;;;;0.10;0.10;;;15.00;59.50;;;;;;6159253;23;20005;-80
2024/02/16 15:57:59;;;;;;;0.10;0.10;;;14.90;59.80;;;;;;6160627;23;20001;-80
2024/02/16 16:00:25;;;;;;;0.10;0.10;;;14.90;59.50;;;;;;6160103;23;19998;-80
2024/02/16 16:02:51;;;;;;;0.10;0.10;;;14.80;61.20;;;;;;6132611;23;20005;-80
2024/02/16 16:05:17;;;;;;;0.10;0.10;;;14.90;60.70;;;;;;6133877;23;20013;-79
2024/02/16 16:07:42;;;;;;;0.10;0.10;;;14.80;60.50;;;;;;6133506;23;20040;-79
2024/02/16 16:10:08;;;;;;;0.10;0.10;;;14.70;61.00;;;;;;6159882;23;20009;-80
2024/02/16 16:12:33;;;;;;;0.10;0.10;;;14.70;61.00;;;;;;6159393;23;20010;-79
2024/02/16 16:14:59;;;;;;;0.10;0.10;;;14.70;60.70;;;;;;6159322;23;20430;-79
2024/02/16 16:17:25;;;;;;;0.10;0.10;;;14.70;60.20;;;;;;6160033;23;20001;-80
2024/02/16 16:19:50;;;;;;;0.10;0.10;;;14.70;60.20;;;;;;6133154;23;20016;-80
2024/02/16 16:22:16;;;;;;;0.10;0.10;;;14.70;60.90;;;;;;6158840;23;20391;-80
2024/02/16 16:24:41;;;;;;;0.10;0.10;;;14.70;61.50;;;;;;6159268;23;20052;-80
2024/02/16 16:27:07;;;;;;;0.10;0.10;;;14.60;61.40;;;;;;6159739;23;20398;-79
2024/02/16 16:29:33;;;;;;;0.10;0.10;;;14.50;63.00;;;;;;6159132;23;20009;-79
2024/02/16 16:32:02;;;;;;;0.10;0.10;;;14.40;63.20;;;;;;6151233;23;20017;-80
2024/02/16 16:34:28;;;;;;;0.10;0.10;;;14.30;63.40;;;;;;6159042;23;20016;-80
2024/02/16 16:36:55;;;;;;;0.00;0.00;;;14.20;64.50;;;;;;6157870;23;20061;-79
2024/02/16 16:39:22;;;;;;;0.10;0.10;;;14.20;64.80;;;;;;6159103;23;20009;-79
2024/02/16 16:41:47;;;;;;;0.10;0.10;;;14.10;65.30;;;;;;6159067;23;20386;-79
2024/02/16 16:44:13;;;;;;;0.10;0.10;;;14.00;65.50;;;;;;6158761;23;20035;-79
2024/02/16 16:46:39;;;;;;;0.10;0.10;;;14.00;66.10;;;;;;6159626;23;20002;-79
2024/02/16 16:49:05;;;;;;;0.10;0.10;;;14.00;65.90;;;;;;6157665;23;20434;-79
2024/02/16 16:51:30;;;;;;;0.10;0.10;;;13.90;66.50;;;;;;6158794;23;20005;-79
2024/02/16 16:53:56;;;;;;;0.10;0.10;;;13.90;65.70;;;;;;6158736;23;20005;-79
2024/02/16 16:56:21;;;;;;;0.08;0.08;;;13.90;66.60;;;;;;6158981;23;20379;-79
2024/02/16 16:58:47;;;;;;;0.08;0.08;;;13.80;66.70;;;;;;6159066;23;20142;-78
2024/02/16 17:01:13;;;;;;;0.10;0.10;;;13.70;67.10;;;;;;6158760;23;19997;-82
2024/02/16 17:03:39;;;;;;;0.10;0.10;;;13.70;67.20;;;;;;6156922;23;20007;-84
2024/02/16 17:06:05;;;;;;;0.10;0.10;;;13.60;68.20;;;;;;6159195;23;20001;-79
2024/02/16 17:08:33;;;;;;;0.10;0.10;;;13.50;67.00;;;;;;6157761;23;20406;-78
2024/02/16 17:11:03;;;;;;;0.10;0.10;;;13.40;66.90;;;;;;6181767;23;20009;-78
2024/02/16 17:13:29;;;;;;;0.10;0.10;;;13.30;68.30;;;;;;6158779;23;20025;-79
2024/02/16 17:15:54;;;;;;;0.00;0.00;;;13.30;68.70;;;;;;6157387;23;20008;-79
2024/02/16 17:18:20;;;;;;;0.10;0.10;;;13.20;68.40;;;;;;6158586;23;20006;-79
2024/02/16 17:20:47;;;;;;;0.10;0.10;;;13.20;68.70;;;;;;6157911;23;20005;-78
2024/02/16 17:23:13;;;;;;;0.00;0.00;;;13.10;69.40;;;;;;6157536;23;20005;-79
2024/02/16 17:25:38;;;;;;;0.00;0.00;;;13.10;70.00;;;;;;6159404;23;20029;-78
2024/02/16 17:28:06;;;;;;;0.00;0.00;;;13.10;70.00;;;;;;6158021;23;20006;-78
2024/02/16 17:30:33;;;;;;;0.10;0.10;;;13.00;70.30;;;;;;6158457;23;20097;-78
2024/02/16 17:32:59;;;;;;;0.10;0.10;;;13.00;70.70;;;;;;6158776;23;20001;-78
2024/02/16 17:35:26;;;;;;;0.10;0.10;;;13.00;71.00;;;;;;6157963;23;20319;-78
2024/02/16 17:37:53;;;;;;;0.10;0.10;;;12.90;71.00;;;;;;6132563;23;20052;-77
2024/02/16 17:40:19;;;;;;;0.10;0.10;;;12.90;71.40;;;;;;6132207;23;20001;-78
2024/02/16 17:42:46;;;;;;;0.10;0.10;;;12.90;71.50;;;;;;6158709;23;20463;-77
2024/02/16 17:45:12;;;;;;;0.10;0.10;;;12.90;71.50;;;;;;6159540;23;20012;-78
2024/02/16 17:47:38;;;;;;;0.10;0.10;;;12.90;71.00;;;;;;6150181;23;20286;-76
2024/02/16 17:50:05;;;;;;;0.05;0.05;;;12.80;71.00;;;;;;6151921;23;20009;-77
2024/02/16 17:52:31;;;;;;;0.15;0.10;;;12.80;71.90;;;;;;6156704;23;20061;-79
2024/02/16 17:55:00;;;;;;;0.00;0.00;;;12.70;71.40;;;;;;6158074;23;20044;-80
2024/02/16 17:57:26;;;;;;;0.10;0.10;;;12.60;71.70;;;;;;6151077;23;20018;-80
2024/02/16 17:59:52;;;;;;;0.10;0.10;;;12.50;71.80;;;;;;6156872;23;20454;-80
2024/02/16 18:02:18;;;;;;;0.10;0.10;;;12.40;71.70;;;;;;6157931;23;20064;-81
2024/02/16 18:04:45;;;;;;;0.10;0.10;;;12.30;71.90;;;;;;6155132;23;20009;-83
2024/02/16 18:07:14;;;;;;;0.10;0.10;;;12.30;71.90;;;;;;6158142;23;20033;-82
2024/02/16 18:09:43;;;;;;;0.10;0.10;;;12.30;71.70;;;;;;6159633;23;20330;-78
2024/02/16 18:12:13;;;;;;;0.10;0.10;;;12.30;72.20;;;;;;6158975;23;20005;-81
2024/02/16 18:14:39;;;;;;;0.10;0.10;;;12.30;71.30;;;;;;6159160;23;20026;-83
2024/02/16 18:17:07;;;;;;;0.10;0.10;;;12.30;71.00;;;;;;6158711;23;20049;-83